sensor_id;sensor_type;location;lat;lon;timestamp;P1;durP1;ratioP1;P2;durP2;ratioP2
61391;SDS011;47261;52.892;5.738;2023-01-23T00:00:57;15.05;;;3.72;;
61391;SDS011;47261;52.892;5.738;2023-01-23T00:03:23;11.25;;;4.03;;
61391;SDS011;47261;52.892;5.738;2023-01-23T00:05:59;12.15;;;3.90;;
61391;SDS011;47261;52.892;5.738;2023-01-23T00:08:27;14.15;;;4.25;;
61391;SDS011;47261;52.892;5.738;2023-01-23T00:10:53;14.32;;;4.38;;
61391;SDS011;47261;52.892;5.738;2023-01-23T00:13:19;14.98;;;4.18;;
61391;SDS011;47261;52.892;5.738;2023-01-23T00:15:45;16.23;;;4.13;;
61391;SDS011;47261;52.892;5.738;2023-01-23T00:18:12;16.42;;;3.80;;
61391;SDS011;47261;52.892;5.738;2023-01-23T00:20:38;9.70;;;3.58;;
61391;SDS011;47261;52.892;5.738;2023-01-23T00:23:05;16.83;;;4.32;;
61391;SDS011;47261;52.892;5.738;2023-01-23T00:25:34;15.27;;;5.03;;
61391;SDS011;47261;52.892;5.738;2023-01-23T00:28:00;13.32;;;4.15;;
61391;SDS011;47261;52.892;5.738;2023-01-23T00:30:26;12.90;;;4.07;;
61391;SDS011;47261;52.892;5.738;2023-01-23T00:32:52;16.65;;;4.65;;
61391;SDS011;47261;52.892;5.738;2023-01-23T00:35:17;14.57;;;3.77;;
61391;SDS011;47261;52.892;5.738;2023-01-23T00:37:43;13.63;;;4.45;;
61391;SDS011;47261;52.892;5.738;2023-01-23T00:40:09;20.00;;;4.80;;
61391;SDS011;47261;52.892;5.738;2023-01-23T00:42:35;13.90;;;4.55;;
61391;SDS011;47261;52.892;5.738;2023-01-23T00:45:00;11.60;;;4.37;;
61391;SDS011;47261;52.892;5.738;2023-01-23T00:47:26;15.27;;;4.32;;
61391;SDS011;47261;52.892;5.738;2023-01-23T00:49:52;11.77;;;4.27;;
61391;SDS011;47261;52.892;5.738;2023-01-23T00:52:19;13.48;;;4.65;;
61391;SDS011;47261;52.892;5.738;2023-01-23T00:54:44;16.07;;;5.27;;
61391;SDS011;47261;52.892;5.738;2023-01-23T00:57:10;13.70;;;4.10;;
61391;SDS011;47261;52.892;5.738;2023-01-23T00:59:36;14.07;;;4.87;;
61391;SDS011;47261;52.892;5.738;2023-01-23T01:02:01;19.45;;;4.47;;
61391;SDS011;47261;52.892;5.738;2023-01-23T01:04:27;15.07;;;4.73;;
61391;SDS011;47261;52.892;5.738;2023-01-23T01:06:53;13.82;;;4.75;;
61391;SDS011;47261;52.892;5.738;2023-01-23T01:09:18;16.47;;;5.00;;
61391;SDS011;47261;52.892;5.738;2023-01-23T01:11:44;15.77;;;6.03;;
61391;SDS011;47261;52.892;5.738;2023-01-23T01:14:10;14.30;;;4.72;;
61391;SDS011;47261;52.892;5.738;2023-01-23T01:16:35;15.83;;;4.63;;
61391;SDS011;47261;52.892;5.738;2023-01-23T01:19:01;14.23;;;5.72;;
61391;SDS011;47261;52.892;5.738;2023-01-23T01:21:29;18.58;;;5.50;;
61391;SDS011;47261;52.892;5.738;2023-01-23T01:23:55;18.83;;;4.90;;
61391;SDS011;47261;52.892;5.738;2023-01-23T01:26:20;17.58;;;5.82;;
61391;SDS011;47261;52.892;5.738;2023-01-23T01:28:47;14.77;;;5.22;;
61391;SDS011;47261;52.892;5.738;2023-01-23T01:31:14;12.68;;;5.13;;
61391;SDS011;47261;52.892;5.738;2023-01-23T01:33:40;14.03;;;5.23;;
61391;SDS011;47261;52.892;5.738;2023-01-23T01:36:08;13.02;;;4.93;;
61391;SDS011;47261;52.892;5.738;2023-01-23T01:38:34;15.45;;;5.55;;
61391;SDS011;47261;52.892;5.738;2023-01-23T01:41:00;17.87;;;6.17;;
61391;SDS011;47261;52.892;5.738;2023-01-23T01:43:26;15.20;;;5.70;;
61391;SDS011;47261;52.892;5.738;2023-01-23T01:51:17;16.33;;;5.40;;
61391;SDS011;47261;52.892;5.738;2023-01-23T01:57:00;17.85;;;6.00;;
61391;SDS011;47261;52.892;5.738;2023-01-23T01:59:43;17.80;;;6.03;;
61391;SDS011;47261;52.892;5.738;2023-01-23T02:02:13;13.13;;;5.53;;
61391;SDS011;47261;52.892;5.738;2023-01-23T02:04:44;14.10;;;5.88;;
61391;SDS011;47261;52.892;5.738;2023-01-23T02:07:27;18.40;;;6.20;;
61391;SDS011;47261;52.892;5.738;2023-01-23T02:10:05;20.70;;;5.40;;
61391;SDS011;47261;52.892;5.738;2023-01-23T02:12:32;16.13;;;5.35;;
61391;SDS011;47261;52.892;5.738;2023-01-23T02:15:00;18.53;;;5.13;;
61391;SDS011;47261;52.892;5.738;2023-01-23T02:17:27;15.77;;;5.15;;
61391;SDS011;47261;52.892;5.738;2023-01-23T02:20:36;14.60;;;5.55;;
61391;SDS011;47261;52.892;5.738;2023-01-23T02:25:38;14.85;;;5.47;;
61391;SDS011;47261;52.892;5.738;2023-01-23T02:28:10;15.60;;;5.63;;
61391;SDS011;47261;52.892;5.738;2023-01-23T02:30:37;17.95;;;6.25;;
61391;SDS011;47261;52.892;5.738;2023-01-23T02:33:39;17.45;;;6.00;;
61391;SDS011;47261;52.892;5.738;2023-01-23T02:35:56;13.00;;;5.60;;
61391;SDS011;47261;52.892;5.738;2023-01-23T02:38:23;14.05;;;5.25;;
61391;SDS011;47261;52.892;5.738;2023-01-23T02:40:51;18.93;;;5.77;;
61391;SDS011;47261;52.892;5.738;2023-01-23T02:43:20;19.38;;;5.65;;
61391;SDS011;47261;52.892;5.738;2023-01-23T02:45:49;16.08;;;5.60;;
61391;SDS011;47261;52.892;5.738;2023-01-23T02:48:16;18.15;;;5.63;;
61391;SDS011;47261;52.892;5.738;2023-01-23T02:50:41;20.33;;;6.53;;
61391;SDS011;47261;52.892;5.738;2023-01-23T02:53:10;21.35;;;7.55;;
61391;SDS011;47261;52.892;5.738;2023-01-23T02:55:36;23.67;;;6.50;;
61391;SDS011;47261;52.892;5.738;2023-01-23T02:58:06;20.10;;;6.65;;
61391;SDS011;47261;52.892;5.738;2023-01-23T03:00:50;21.83;;;7.80;;
61391;SDS011;47261;52.892;5.738;2023-01-23T03:03:16;21.73;;;6.35;;
61391;SDS011;47261;52.892;5.738;2023-01-23T03:05:41;19.47;;;6.57;;
61391;SDS011;47261;52.892;5.738;2023-01-23T03:08:07;15.88;;;6.72;;
61391;SDS011;47261;52.892;5.738;2023-01-23T03:10:33;16.37;;;5.63;;
61391;SDS011;47261;52.892;5.738;2023-01-23T03:12:58;17.27;;;6.50;;
61391;SDS011;47261;52.892;5.738;2023-01-23T03:15:27;18.48;;;6.22;;
61391;SDS011;47261;52.892;5.738;2023-01-23T03:17:54;16.27;;;5.40;;
61391;SDS011;47261;52.892;5.738;2023-01-23T03:20:21;16.70;;;5.57;;
61391;SDS011;47261;52.892;5.738;2023-01-23T03:22:47;18.33;;;6.00;;
61391;SDS011;47261;52.892;5.738;2023-01-23T03:25:14;13.85;;;5.05;;
61391;SDS011;47261;52.892;5.738;2023-01-23T03:27:40;16.23;;;5.93;;
61391;SDS011;47261;52.892;5.738;2023-01-23T03:30:06;25.47;;;6.47;;
61391;SDS011;47261;52.892;5.738;2023-01-23T03:32:39;20.52;;;6.30;;
61391;SDS011;47261;52.892;5.738;2023-01-23T03:35:06;19.15;;;6.22;;
61391;SDS011;47261;52.892;5.738;2023-01-23T03:37:34;20.83;;;6.40;;
61391;SDS011;47261;52.892;5.738;2023-01-23T03:40:01;17.20;;;6.10;;
61391;SDS011;47261;52.892;5.738;2023-01-23T03:42:45;21.10;;;6.30;;
61391;SDS011;47261;52.892;5.738;2023-01-23T03:45:11;19.27;;;5.90;;
61391;SDS011;47261;52.892;5.738;2023-01-23T03:47:36;18.52;;;5.70;;
61391;SDS011;47261;52.892;5.738;2023-01-23T03:50:02;14.40;;;5.07;;
61391;SDS011;47261;52.892;5.738;2023-01-23T03:52:28;18.23;;;6.28;;
61391;SDS011;47261;52.892;5.738;2023-01-23T03:54:54;14.50;;;5.70;;
61391;SDS011;47261;52.892;5.738;2023-01-23T03:57:19;18.23;;;6.07;;
61391;SDS011;47261;52.892;5.738;2023-01-23T03:59:45;14.57;;;5.60;;
61391;SDS011;47261;52.892;5.738;2023-01-23T04:02:11;12.77;;;5.30;;
61391;SDS011;47261;52.892;5.738;2023-01-23T04:04:36;15.87;;;5.53;;
61391;SDS011;47261;52.892;5.738;2023-01-23T04:07:02;15.77;;;5.43;;
61391;SDS011;47261;52.892;5.738;2023-01-23T04:09:28;16.90;;;5.80;;
61391;SDS011;47261;52.892;5.738;2023-01-23T04:11:54;19.40;;;6.90;;
61391;SDS011;47261;52.892;5.738;2023-01-23T04:14:21;19.10;;;6.57;;
61391;SDS011;47261;52.892;5.738;2023-01-23T04:16:48;21.60;;;6.50;;
61391;SDS011;47261;52.892;5.738;2023-01-23T04:19:14;15.33;;;6.77;;
61391;SDS011;47261;52.892;5.738;2023-01-23T04:21:43;19.70;;;7.07;;
61391;SDS011;47261;52.892;5.738;2023-01-23T04:24:13;18.98;;;7.57;;
61391;SDS011;47261;52.892;5.738;2023-01-23T04:26:39;26.08;;;7.45;;
61391;SDS011;47261;52.892;5.738;2023-01-23T04:29:05;18.05;;;7.00;;
61391;SDS011;47261;52.892;5.738;2023-01-23T04:31:30;18.47;;;6.47;;
61391;SDS011;47261;52.892;5.738;2023-01-23T04:33:56;18.73;;;7.18;;
61391;SDS011;47261;52.892;5.738;2023-01-23T04:36:22;17.73;;;6.78;;
61391;SDS011;47261;52.892;5.738;2023-01-23T04:38:48;20.90;;;7.60;;
61391;SDS011;47261;52.892;5.738;2023-01-23T04:41:18;19.77;;;7.87;;
61391;SDS011;47261;52.892;5.738;2023-01-23T04:43:48;20.23;;;7.13;;
61391;SDS011;47261;52.892;5.738;2023-01-23T04:46:14;18.45;;;6.53;;
61391;SDS011;47261;52.892;5.738;2023-01-23T04:48:39;24.00;;;7.17;;
61391;SDS011;47261;52.892;5.738;2023-01-23T04:51:05;22.48;;;7.00;;
61391;SDS011;47261;52.892;5.738;2023-01-23T04:53:31;18.88;;;6.90;;
61391;SDS011;47261;52.892;5.738;2023-01-23T04:55:56;17.58;;;7.28;;
61391;SDS011;47261;52.892;5.738;2023-01-23T04:58:22;19.87;;;7.63;;
61391;SDS011;47261;52.892;5.738;2023-01-23T05:00:48;18.13;;;7.07;;
61391;SDS011;47261;52.892;5.738;2023-01-23T05:03:14;20.50;;;7.27;;
61391;SDS011;47261;52.892;5.738;2023-01-23T05:05:40;21.92;;;6.95;;
61391;SDS011;47261;52.892;5.738;2023-01-23T05:08:08;19.17;;;7.00;;
61391;SDS011;47261;52.892;5.738;2023-01-23T05:10:37;20.23;;;7.68;;
61391;SDS011;47261;52.892;5.738;2023-01-23T05:13:03;19.57;;;6.73;;
61391;SDS011;47261;52.892;5.738;2023-01-23T05:15:29;23.02;;;7.72;;
61391;SDS011;47261;52.892;5.738;2023-01-23T05:17:55;22.75;;;7.90;;
61391;SDS011;47261;52.892;5.738;2023-01-23T05:20:20;20.10;;;7.85;;
61391;SDS011;47261;52.892;5.738;2023-01-23T05:22:47;26.10;;;8.30;;
61391;SDS011;47261;52.892;5.738;2023-01-23T05:25:17;22.25;;;7.78;;
61391;SDS011;47261;52.892;5.738;2023-01-23T05:27:44;20.03;;;8.10;;
61391;SDS011;47261;52.892;5.738;2023-01-23T05:30:10;20.70;;;8.10;;
61391;SDS011;47261;52.892;5.738;2023-01-23T05:32:36;23.98;;;8.75;;
61391;SDS011;47261;52.892;5.738;2023-01-23T05:35:02;30.43;;;8.57;;
61391;SDS011;47261;52.892;5.738;2023-01-23T05:37:27;30.15;;;9.07;;
61391;SDS011;47261;52.892;5.738;2023-01-23T05:39:53;19.83;;;7.83;;
61391;SDS011;47261;52.892;5.738;2023-01-23T05:42:18;24.43;;;8.63;;
61391;SDS011;47261;52.892;5.738;2023-01-23T05:44:44;21.55;;;9.38;;
61391;SDS011;47261;52.892;5.738;2023-01-23T05:47:10;32.77;;;9.47;;
61391;SDS011;47261;52.892;5.738;2023-01-23T05:49:35;27.60;;;9.18;;
61391;SDS011;47261;52.892;5.738;2023-01-23T05:52:01;19.13;;;8.10;;
61391;SDS011;47261;52.892;5.738;2023-01-23T05:54:27;22.05;;;8.00;;
61391;SDS011;47261;52.892;5.738;2023-01-23T05:56:52;27.95;;;8.52;;
61391;SDS011;47261;52.892;5.738;2023-01-23T05:59:18;23.60;;;8.87;;
61391;SDS011;47261;52.892;5.738;2023-01-23T06:01:43;23.30;;;8.05;;
61391;SDS011;47261;52.892;5.738;2023-01-23T06:04:09;25.07;;;9.40;;
61391;SDS011;47261;52.892;5.738;2023-01-23T06:06:37;19.70;;;8.00;;
61391;SDS011;47261;52.892;5.738;2023-01-23T06:09:02;24.87;;;8.43;;
61391;SDS011;47261;52.892;5.738;2023-01-23T06:11:28;26.95;;;8.63;;
61391;SDS011;47261;52.892;5.738;2023-01-23T06:13:53;25.03;;;9.20;;
61391;SDS011;47261;52.892;5.738;2023-01-23T06:16:19;20.35;;;8.23;;
61391;SDS011;47261;52.892;5.738;2023-01-23T06:18:45;20.10;;;7.93;;
61391;SDS011;47261;52.892;5.738;2023-01-23T06:21:10;22.53;;;7.70;;
61391;SDS011;47261;52.892;5.738;2023-01-23T06:23:36;20.45;;;8.32;;
61391;SDS011;47261;52.892;5.738;2023-01-23T06:26:02;21.90;;;7.07;;
61391;SDS011;47261;52.892;5.738;2023-01-23T06:28:28;19.13;;;8.18;;
61391;SDS011;47261;52.892;5.738;2023-01-23T06:30:53;26.40;;;9.45;;
61391;SDS011;47261;52.892;5.738;2023-01-23T06:33:19;22.47;;;7.50;;
61391;SDS011;47261;52.892;5.738;2023-01-23T06:35:45;18.02;;;7.13;;
61391;SDS011;47261;52.892;5.738;2023-01-23T06:38:10;22.83;;;7.17;;
61391;SDS011;47261;52.892;5.738;2023-01-23T06:40:36;17.73;;;6.70;;
61391;SDS011;47261;52.892;5.738;2023-01-23T06:43:02;21.23;;;7.15;;
61391;SDS011;47261;52.892;5.738;2023-01-23T06:45:27;16.93;;;7.07;;
61391;SDS011;47261;52.892;5.738;2023-01-23T06:47:53;20.90;;;7.35;;
61391;SDS011;47261;52.892;5.738;2023-01-23T06:50:18;21.73;;;7.87;;
61391;SDS011;47261;52.892;5.738;2023-01-23T06:52:44;21.37;;;7.87;;
61391;SDS011;47261;52.892;5.738;2023-01-23T06:55:10;18.92;;;7.00;;
61391;SDS011;47261;52.892;5.738;2023-01-23T06:57:35;18.77;;;6.97;;
61391;SDS011;47261;52.892;5.738;2023-01-23T07:00:01;19.85;;;7.82;;
61391;SDS011;47261;52.892;5.738;2023-01-23T07:02:27;21.58;;;7.28;;
61391;SDS011;47261;52.892;5.738;2023-01-23T07:04:53;26.20;;;7.33;;
61391;SDS011;47261;52.892;5.738;2023-01-23T07:07:19;21.02;;;8.57;;
61391;SDS011;47261;52.892;5.738;2023-01-23T07:09:44;20.00;;;6.97;;
61391;SDS011;47261;52.892;5.738;2023-01-23T07:12:10;18.60;;;7.18;;
61391;SDS011;47261;52.892;5.738;2023-01-23T07:14:36;20.00;;;7.28;;
61391;SDS011;47261;52.892;5.738;2023-01-23T07:17:01;22.37;;;8.07;;
61391;SDS011;47261;52.892;5.738;2023-01-23T07:19:27;20.35;;;7.55;;
61391;SDS011;47261;52.892;5.738;2023-01-23T07:21:53;19.23;;;7.87;;
61391;SDS011;47261;52.892;5.738;2023-01-23T07:24:18;21.02;;;7.53;;
61391;SDS011;47261;52.892;5.738;2023-01-23T07:26:44;27.13;;;8.80;;
61391;SDS011;47261;52.892;5.738;2023-01-23T07:29:09;20.33;;;7.60;;
61391;SDS011;47261;52.892;5.738;2023-01-23T07:31:35;20.40;;;7.90;;
61391;SDS011;47261;52.892;5.738;2023-01-23T07:34:01;24.27;;;8.07;;
61391;SDS011;47261;52.892;5.738;2023-01-23T07:36:28;26.00;;;8.80;;
61391;SDS011;47261;52.892;5.738;2023-01-23T07:38:54;20.45;;;7.53;;
61391;SDS011;47261;52.892;5.738;2023-01-23T07:41:20;23.70;;;8.50;;
61391;SDS011;47261;52.892;5.738;2023-01-23T07:43:46;19.75;;;7.93;;
61391;SDS011;47261;52.892;5.738;2023-01-23T07:46:12;25.57;;;9.37;;
61391;SDS011;47261;52.892;5.738;2023-01-23T07:48:37;25.55;;;9.18;;
61391;SDS011;47261;52.892;5.738;2023-01-23T07:51:03;23.20;;;8.60;;
61391;SDS011;47261;52.892;5.738;2023-01-23T07:53:30;21.50;;;8.00;;
61391;SDS011;47261;52.892;5.738;2023-01-23T07:55:56;21.30;;;7.88;;
61391;SDS011;47261;52.892;5.738;2023-01-23T07:58:21;24.53;;;8.50;;
61391;SDS011;47261;52.892;5.738;2023-01-23T08:00:47;22.40;;;8.88;;
61391;SDS011;47261;52.892;5.738;2023-01-23T08:03:13;23.53;;;9.07;;
61391;SDS011;47261;52.892;5.738;2023-01-23T08:05:39;20.98;;;8.82;;
61391;SDS011;47261;52.892;5.738;2023-01-23T08:08:04;21.35;;;8.57;;
61391;SDS011;47261;52.892;5.738;2023-01-23T08:10:30;18.77;;;7.85;;
61391;SDS011;47261;52.892;5.738;2023-01-23T08:12:56;22.17;;;8.20;;
61391;SDS011;47261;52.892;5.738;2023-01-23T08:15:22;23.67;;;9.53;;
61391;SDS011;47261;52.892;5.738;2023-01-23T08:17:47;26.70;;;9.03;;
61391;SDS011;47261;52.892;5.738;2023-01-23T08:20:13;22.55;;;9.02;;
61391;SDS011;47261;52.892;5.738;2023-01-23T08:22:39;22.20;;;8.52;;
61391;SDS011;47261;52.892;5.738;2023-01-23T08:25:08;19.00;;;8.70;;
61391;SDS011;47261;52.892;5.738;2023-01-23T08:27:34;28.42;;;10.30;;
61391;SDS011;47261;52.892;5.738;2023-01-23T08:30:01;25.08;;;10.00;;
61391;SDS011;47261;52.892;5.738;2023-01-23T08:32:27;23.00;;;8.80;;
61391;SDS011;47261;52.892;5.738;2023-01-23T08:34:53;24.37;;;7.90;;
61391;SDS011;47261;52.892;5.738;2023-01-23T08:37:19;24.92;;;9.30;;
61391;SDS011;47261;52.892;5.738;2023-01-23T08:39:45;25.43;;;9.40;;
61391;SDS011;47261;52.892;5.738;2023-01-23T08:42:10;20.30;;;8.05;;
61391;SDS011;47261;52.892;5.738;2023-01-23T08:44:36;24.00;;;7.93;;
61391;SDS011;47261;52.892;5.738;2023-01-23T08:47:01;25.33;;;8.67;;
61391;SDS011;47261;52.892;5.738;2023-01-23T08:49:27;22.13;;;8.25;;
61391;SDS011;47261;52.892;5.738;2023-01-23T08:51:53;19.33;;;7.95;;
61391;SDS011;47261;52.892;5.738;2023-01-23T08:54:20;19.35;;;8.68;;
61391;SDS011;47261;52.892;5.738;2023-01-23T08:56:46;24.45;;;7.70;;
61391;SDS011;47261;52.892;5.738;2023-01-23T08:59:12;20.73;;;8.13;;
61391;SDS011;47261;52.892;5.738;2023-01-23T09:01:37;23.58;;;8.32;;
61391;SDS011;47261;52.892;5.738;2023-01-23T09:04:03;19.97;;;8.17;;
61391;SDS011;47261;52.892;5.738;2023-01-23T09:06:29;23.10;;;7.72;;
61391;SDS011;47261;52.892;5.738;2023-01-23T09:08:54;18.92;;;8.07;;
61391;SDS011;47261;52.892;5.738;2023-01-23T09:11:20;21.05;;;8.27;;
61391;SDS011;47261;52.892;5.738;2023-01-23T09:13:47;24.38;;;9.07;;
61391;SDS011;47261;52.892;5.738;2023-01-23T09:16:13;24.35;;;8.13;;
61391;SDS011;47261;52.892;5.738;2023-01-23T09:18:39;24.85;;;8.18;;
61391;SDS011;47261;52.892;5.738;2023-01-23T09:21:05;21.37;;;8.03;;
61391;SDS011;47261;52.892;5.738;2023-01-23T09:23:33;23.05;;;8.02;;
61391;SDS011;47261;52.892;5.738;2023-01-23T09:26:02;20.83;;;8.82;;
61391;SDS011;47261;52.892;5.738;2023-01-23T09:28:29;20.95;;;7.43;;
61391;SDS011;47261;52.892;5.738;2023-01-23T09:30:55;23.43;;;8.27;;
61391;SDS011;47261;52.892;5.738;2023-01-23T09:33:20;20.08;;;8.85;;
61391;SDS011;47261;52.892;5.738;2023-01-23T09:35:51;21.53;;;7.97;;
61391;SDS011;47261;52.892;5.738;2023-01-23T09:38:16;20.75;;;8.68;;
61391;SDS011;47261;52.892;5.738;2023-01-23T09:40:45;19.77;;;7.90;;
61391;SDS011;47261;52.892;5.738;2023-01-23T09:43:17;23.17;;;8.48;;
61391;SDS011;47261;52.892;5.738;2023-01-23T09:46:21;21.33;;;8.18;;
61391;SDS011;47261;52.892;5.738;2023-01-23T09:49:02;17.00;;;7.40;;
61391;SDS011;47261;52.892;5.738;2023-01-23T09:56:55;19.88;;;7.45;;
61391;SDS011;47261;52.892;5.738;2023-01-23T10:01:50;18.80;;;7.67;;
61391;SDS011;47261;52.892;5.738;2023-01-23T10:04:16;19.17;;;7.60;;
61391;SDS011;47261;52.892;5.738;2023-01-23T10:06:49;18.60;;;7.03;;
61391;SDS011;47261;52.892;5.738;2023-01-23T10:09:21;21.98;;;7.35;;
61391;SDS011;47261;52.892;5.738;2023-01-23T10:11:55;22.55;;;6.53;;
61391;SDS011;47261;52.892;5.738;2023-01-23T10:22:28;21.70;;;7.97;;
61391;SDS011;47261;52.892;5.738;2023-01-23T10:25:37;17.52;;;6.75;;
61391;SDS011;47261;52.892;5.738;2023-01-23T10:28:08;17.55;;;8.23;;
61391;SDS011;47261;52.892;5.738;2023-01-23T10:30:36;18.75;;;7.60;;
61391;SDS011;47261;52.892;5.738;2023-01-23T10:33:10;18.47;;;5.83;;
61391;SDS011;47261;52.892;5.738;2023-01-23T10:35:48;21.80;;;7.70;;
61391;SDS011;47261;52.892;5.738;2023-01-23T10:41:22;19.17;;;7.55;;
61391;SDS011;47261;52.892;5.738;2023-01-23T10:43:48;16.73;;;7.07;;
61391;SDS011;47261;52.892;5.738;2023-01-23T10:46:19;17.25;;;5.95;;
61391;SDS011;47261;52.892;5.738;2023-01-23T10:48:58;20.65;;;7.28;;
61391;SDS011;47261;52.892;5.738;2023-01-23T10:51:29;21.40;;;7.68;;
61391;SDS011;47261;52.892;5.738;2023-01-23T10:59:17;18.92;;;7.03;;
61391;SDS011;47261;52.892;5.738;2023-01-23T11:04:37;17.10;;;7.03;;
61391;SDS011;47261;52.892;5.738;2023-01-23T11:12:46;18.48;;;6.57;;
61391;SDS011;47261;52.892;5.738;2023-01-23T11:15:24;15.90;;;6.22;;
61391;SDS011;47261;52.892;5.738;2023-01-23T11:17:55;18.05;;;7.40;;
61391;SDS011;47261;52.892;5.738;2023-01-23T11:20:27;16.73;;;6.88;;
61391;SDS011;47261;52.892;5.738;2023-01-23T11:25:42;16.92;;;6.05;;
61391;SDS011;47261;52.892;5.738;2023-01-23T11:28:20;16.85;;;6.32;;
61391;SDS011;47261;52.892;5.738;2023-01-23T11:33:39;20.30;;;7.18;;
61391;SDS011;47261;52.892;5.738;2023-01-23T11:42:17;14.70;;;6.30;;
61391;SDS011;47261;52.892;5.738;2023-01-23T11:44:44;17.33;;;6.63;;
61391;SDS011;47261;52.892;5.738;2023-01-23T11:47:22;16.65;;;5.75;;
61391;SDS011;47261;52.892;5.738;2023-01-23T11:52:30;13.60;;;6.25;;
61391;SDS011;47261;52.892;5.738;2023-01-23T11:58:16;13.00;;;5.40;;
61391;SDS011;47261;52.892;5.738;2023-01-23T12:00:53;15.82;;;4.65;;
61391;SDS011;47261;52.892;5.738;2023-01-23T12:10:13;11.07;;;4.57;;
61391;SDS011;47261;52.892;5.738;2023-01-23T12:12:51;12.20;;;5.22;;
61391;SDS011;47261;52.892;5.738;2023-01-23T12:26:22;11.50;;;5.32;;
61391;SDS011;47261;52.892;5.738;2023-01-23T12:29:07;11.18;;;3.60;;
61391;SDS011;47261;52.892;5.738;2023-01-23T12:34:56;10.63;;;3.80;;
61391;SDS011;47261;52.892;5.738;2023-01-23T12:40:41;2.85;;;0.85;;
61391;SDS011;47261;52.892;5.738;2023-01-23T12:43:22;2.55;;;0.75;;
61391;SDS011;47261;52.892;5.738;2023-01-23T12:46:04;3.80;;;0.97;;
61391;SDS011;47261;52.892;5.738;2023-01-23T12:52:24;4.30;;;1.20;;
61391;SDS011;47261;52.892;5.738;2023-01-23T12:55:06;3.47;;;1.38;;
61391;SDS011;47261;52.892;5.738;2023-01-23T12:57:39;4.18;;;1.38;;
61391;SDS011;47261;52.892;5.738;2023-01-23T13:14:12;6.30;;;2.40;;
61391;SDS011;47261;52.892;5.738;2023-01-23T13:16:47;5.85;;;2.35;;
61391;SDS011;47261;52.892;5.738;2023-01-23T13:19:23;8.57;;;2.83;;
61391;SDS011;47261;52.892;5.738;2023-01-23T13:30:33;5.00;;;1.90;;
61391;SDS011;47261;52.892;5.738;2023-01-23T13:32:57;6.18;;;2.10;;
61391;SDS011;47261;52.892;5.738;2023-01-23T13:51:59;6.25;;;1.90;;
61391;SDS011;47261;52.892;5.738;2023-01-23T13:54:29;6.00;;;2.00;;
61391;SDS011;47261;52.892;5.738;2023-01-23T13:57:15;7.57;;;1.80;;
61391;SDS011;47261;52.892;5.738;2023-01-23T13:59:44;5.15;;;2.20;;
61391;SDS011;47261;52.892;5.738;2023-01-23T14:05:11;5.55;;;2.05;;
61391;SDS011;47261;52.892;5.738;2023-01-23T14:07:41;3.33;;;1.20;;
61391;SDS011;47261;52.892;5.738;2023-01-23T14:12:42;4.07;;;1.35;;
61391;SDS011;47261;52.892;5.738;2023-01-23T14:18:23;4.03;;;1.30;;
61391;SDS011;47261;52.892;5.738;2023-01-23T14:21:02;5.57;;;2.23;;
61391;SDS011;47261;52.892;5.738;2023-01-23T14:23:41;3.97;;;1.38;;
61391;SDS011;47261;52.892;5.738;2023-01-23T14:26:08;5.80;;;1.50;;
61391;SDS011;47261;52.892;5.738;2023-01-23T14:28:39;6.50;;;1.70;;
61391;SDS011;47261;52.892;5.738;2023-01-23T14:31:21;5.68;;;1.42;;
61391;SDS011;47261;52.892;5.738;2023-01-23T14:33:54;4.07;;;1.40;;
61391;SDS011;47261;52.892;5.738;2023-01-23T14:36:24;3.88;;;1.38;;
61391;SDS011;47261;52.892;5.738;2023-01-23T14:38:50;4.35;;;1.48;;
61391;SDS011;47261;52.892;5.738;2023-01-23T14:41:16;3.83;;;1.40;;
61391;SDS011;47261;52.892;5.738;2023-01-23T14:43:45;4.67;;;1.83;;
61391;SDS011;47261;52.892;5.738;2023-01-23T14:46:17;5.05;;;1.63;;
61391;SDS011;47261;52.892;5.738;2023-01-23T14:48:48;4.60;;;1.80;;
61391;SDS011;47261;52.892;5.738;2023-01-23T14:51:25;5.63;;;2.10;;
61391;SDS011;47261;52.892;5.738;2023-01-23T14:56:23;7.47;;;2.33;;
61391;SDS011;47261;52.892;5.738;2023-01-23T14:58:51;5.28;;;2.08;;
61391;SDS011;47261;52.892;5.738;2023-01-23T15:01:20;6.40;;;2.25;;
61391;SDS011;47261;52.892;5.738;2023-01-23T15:03:56;6.90;;;2.13;;
61391;SDS011;47261;52.892;5.738;2023-01-23T15:06:26;5.38;;;1.95;;
61391;SDS011;47261;52.892;5.738;2023-01-23T15:08:53;5.85;;;2.25;;
61391;SDS011;47261;52.892;5.738;2023-01-23T15:11:27;5.13;;;1.98;;
61391;SDS011;47261;52.892;5.738;2023-01-23T15:13:54;5.57;;;2.20;;
61391;SDS011;47261;52.892;5.738;2023-01-23T15:16:34;5.65;;;2.10;;
61391;SDS011;47261;52.892;5.738;2023-01-23T15:19:20;4.82;;;1.63;;
61391;SDS011;47261;52.892;5.738;2023-01-23T15:21:48;5.00;;;1.83;;
61391;SDS011;47261;52.892;5.738;2023-01-23T15:26:44;5.47;;;2.30;;
61391;SDS011;47261;52.892;5.738;2023-01-23T15:29:24;6.00;;;1.92;;
61391;SDS011;47261;52.892;5.738;2023-01-23T15:31:51;5.90;;;2.13;;
61391;SDS011;47261;52.892;5.738;2023-01-23T15:34:20;5.90;;;2.20;;
61391;SDS011;47261;52.892;5.738;2023-01-23T15:39:38;7.45;;;2.47;;
61391;SDS011;47261;52.892;5.738;2023-01-23T15:44:36;8.13;;;3.00;;
61391;SDS011;47261;52.892;5.738;2023-01-23T15:47:02;6.70;;;2.80;;
61391;SDS011;47261;52.892;5.738;2023-01-23T15:49:29;6.10;;;2.35;;
61391;SDS011;47261;52.892;5.738;2023-01-23T15:51:57;6.85;;;2.78;;
61391;SDS011;47261;52.892;5.738;2023-01-23T15:54:27;6.17;;;2.70;;
61391;SDS011;47261;52.892;5.738;2023-01-23T15:57:00;7.95;;;2.80;;
61391;SDS011;47261;52.892;5.738;2023-01-23T15:59:26;7.38;;;2.35;;
61391;SDS011;47261;52.892;5.738;2023-01-23T16:01:52;8.88;;;2.80;;
61391;SDS011;47261;52.892;5.738;2023-01-23T16:04:18;6.97;;;3.10;;
61391;SDS011;47261;52.892;5.738;2023-01-23T16:06:45;7.82;;;3.10;;
61391;SDS011;47261;52.892;5.738;2023-01-23T16:09:44;8.13;;;3.08;;
61391;SDS011;47261;52.892;5.738;2023-01-23T16:12:05;7.18;;;3.00;;
61391;SDS011;47261;52.892;5.738;2023-01-23T16:14:38;7.97;;;3.15;;
61391;SDS011;47261;52.892;5.738;2023-01-23T16:17:03;6.97;;;3.17;;
61391;SDS011;47261;52.892;5.738;2023-01-23T16:19:29;7.17;;;2.97;;
61391;SDS011;47261;52.892;5.738;2023-01-23T16:21:55;9.25;;;3.10;;
61391;SDS011;47261;52.892;5.738;2023-01-23T16:24:20;9.07;;;3.43;;
61391;SDS011;47261;52.892;5.738;2023-01-23T16:26:48;7.40;;;3.28;;
61391;SDS011;47261;52.892;5.738;2023-01-23T16:29:19;8.63;;;3.42;;
61391;SDS011;47261;52.892;5.738;2023-01-23T16:31:52;9.82;;;3.47;;
61391;SDS011;47261;52.892;5.738;2023-01-23T16:34:19;9.17;;;3.87;;
61391;SDS011;47261;52.892;5.738;2023-01-23T16:36:45;7.05;;;3.42;;
61391;SDS011;47261;52.892;5.738;2023-01-23T16:39:19;9.35;;;4.00;;
61391;SDS011;47261;52.892;5.738;2023-01-23T16:41:49;8.00;;;3.83;;
61391;SDS011;47261;52.892;5.738;2023-01-23T16:44:18;9.00;;;4.07;;
61391;SDS011;47261;52.892;5.738;2023-01-23T16:46:46;9.05;;;4.00;;
61391;SDS011;47261;52.892;5.738;2023-01-23T16:49:13;10.55;;;4.03;;
61391;SDS011;47261;52.892;5.738;2023-01-23T16:51:40;9.27;;;4.60;;
61391;SDS011;47261;52.892;5.738;2023-01-23T16:54:17;10.38;;;4.05;;
61391;SDS011;47261;52.892;5.738;2023-01-23T16:56:45;11.63;;;4.53;;
61391;SDS011;47261;52.892;5.738;2023-01-23T16:59:18;12.18;;;4.63;;
61391;SDS011;47261;52.892;5.738;2023-01-23T17:01:49;10.05;;;4.90;;
61391;SDS011;47261;52.892;5.738;2023-01-23T17:04:17;10.80;;;4.90;;
61391;SDS011;47261;52.892;5.738;2023-01-23T17:06:44;10.77;;;4.80;;
61391;SDS011;47261;52.892;5.738;2023-01-23T17:09:11;10.23;;;4.50;;
61391;SDS011;47261;52.892;5.738;2023-01-23T17:11:38;10.23;;;4.43;;
61391;SDS011;47261;52.892;5.738;2023-01-23T17:14:18;11.25;;;4.53;;